createdAt,value
2017-02-16T00:00:46.681Z,2.04
2017-02-16T00:01:46.081Z,2.06
2017-02-16T00:02:45.653Z,2.04
2017-02-16T00:03:46.034Z,2.2
2017-02-16T00:04:45.660Z,2.08
2017-02-16T00:05:46.236Z,2.05
2017-02-16T00:06:46.007Z,2.02
2017-02-16T00:07:45.994Z,2.13
2017-02-16T00:08:45.998Z,2.09
2017-02-16T00:09:45.563Z,2.09
2017-02-16T00:10:46.017Z,2.09
2017-02-16T00:11:45.897Z,2.05
2017-02-16T00:12:45.934Z,2.12
2017-02-16T00:13:45.874Z,2.23
2017-02-16T00:14:45.437Z,2.26
2017-02-16T00:15:45.569Z,2.3
2017-02-16T00:16:45.423Z,2.38
2017-02-16T00:17:45.501Z,2.34
2017-02-16T00:18:45.817Z,2.33
2017-02-16T00:19:44.991Z,2.34
2017-02-16T00:20:45.363Z,2.31
2017-02-16T00:21:45.817Z,2.34
2017-02-16T00:22:45.737Z,2.33
2017-02-16T00:23:45.415Z,2.34
2017-02-16T00:24:45.757Z,2.3
2017-02-16T00:25:45.690Z,2.41
2017-02-16T00:26:45.377Z,2.36
2017-02-16T00:27:45.793Z,2.4
2017-02-16T00:28:45.238Z,2.34
2017-02-16T00:29:45.631Z,2.42
2017-02-16T00:30:45.645Z,2.42
2017-02-16T00:31:45.195Z,2.44
2017-02-16T00:32:45.677Z,2.38
2017-02-16T00:33:45.544Z,2.4
2017-02-16T00:34:45.554Z,2.4
2017-02-16T00:35:45.555Z,2.4
2017-02-16T00:36:45.171Z,2.33
2017-02-16T00:37:45.552Z,2.36
2017-02-16T00:38:45.500Z,2.36
2017-02-16T00:39:45.517Z,2.41
2017-02-16T00:40:45.705Z,2.45
2017-02-16T00:41:45.211Z,2.44
2017-02-16T00:42:46.115Z,2.41
2017-02-16T00:43:46.018Z,2.31
2017-02-16T00:44:45.637Z,2.45
2017-02-16T00:45:45.803Z,2.34
2017-02-16T00:46:46.003Z,2.42
2017-02-16T00:47:45.964Z,2.33
2017-02-16T00:48:44.979Z,2.44
2017-02-16T00:49:45.418Z,2.31
2017-02-16T00:50:45.260Z,2.34
2017-02-16T00:51:45.262Z,2.34
2017-02-16T00:52:45.245Z,2.33
2017-02-16T00:53:45.217Z,2.31
2017-02-16T00:54:45.200Z,2.41
2017-02-16T00:55:45.186Z,2.4
2017-02-16T00:56:45.189Z,2.31
2017-02-16T00:57:45.175Z,2.29
2017-02-16T00:58:45.157Z,2.29
2017-02-16T00:59:45.139Z,2.29
2017-02-16T01:00:45.110Z,2.36
2017-02-16T01:01:45.109Z,2.34
2017-02-16T01:02:45.081Z,2.3
2017-02-16T01:03:45.074Z,2.15
2017-02-16T01:04:45.037Z,2.12
2017-02-16T01:05:45.026Z,2.16
2017-02-16T01:06:45.056Z,2.05
2017-02-16T01:07:44.999Z,2.08
2017-02-16T01:08:44.977Z,2.04
2017-02-16T01:09:44.979Z,2.12
2017-02-16T01:10:44.966Z,2.22
2017-02-16T01:11:44.948Z,2.22
2017-02-16T01:12:44.920Z,2.29
2017-02-16T01:13:44.915Z,2.4
2017-02-16T01:14:44.488Z,2.45
2017-02-16T01:15:44.884Z,2.45
2017-02-16T01:16:44.869Z,2.45
2017-02-16T01:17:44.869Z,2.42
2017-02-16T01:18:44.823Z,2.45
2017-02-16T01:19:44.834Z,2.49
2017-02-16T01:20:44.797Z,2.54
2017-02-16T01:21:44.385Z,2.51
2017-02-16T01:22:44.775Z,2.51
2017-02-16T01:23:44.757Z,2.55
2017-02-16T01:24:44.733Z,2.55
2017-02-16T01:25:44.727Z,2.59
2017-02-16T01:26:44.705Z,2.51
2017-02-16T01:27:44.741Z,2.47
2017-02-16T01:28:44.665Z,2.47
2017-02-16T01:29:44.667Z,2.33
2017-02-16T01:30:44.672Z,2.3
2017-02-16T01:31:44.626Z,2.3
2017-02-16T01:32:44.615Z,2.34
2017-02-16T01:33:44.604Z,2.3
2017-02-16T01:34:44.586Z,2.18
2017-02-16T01:35:44.576Z,2.15
2017-02-16T01:36:44.560Z,2.11
2017-02-16T01:37:44.533Z,2.12
2017-02-16T01:38:44.514Z,2.09
2017-02-16T01:39:44.494Z,2.26
2017-02-16T01:40:44.485Z,2.15
2017-02-16T01:41:44.081Z,2.2
2017-02-16T01:42:44.456Z,2.18
2017-02-16T01:43:44.435Z,2.22
2017-02-16T01:44:44.447Z,2.23
2017-02-16T01:45:44.428Z,2.23
2017-02-16T01:46:44.414Z,2.23
2017-02-16T01:47:44.389Z,2.22
2017-02-16T01:48:44.381Z,2.29
2017-02-16T01:49:44.358Z,2.31
2017-02-16T01:50:44.338Z,2.36
2017-02-16T01:51:44.363Z,2.29
2017-02-16T01:52:44.304Z,2.23
2017-02-16T01:53:43.891Z,2.22
2017-02-16T01:54:44.280Z,2.2
2017-02-16T01:55:44.246Z,2.11
2017-02-16T01:56:44.239Z,2.08
2017-02-16T01:57:44.217Z,1.94
2017-02-16T01:58:44.204Z,1.97
2017-02-16T01:59:44.194Z,1.86
2017-02-16T02:00:44.189Z,2.02
2017-02-16T02:01:44.191Z,2.06
2017-02-16T02:02:44.144Z,2.06
2017-02-16T02:03:44.136Z,2.04
2017-02-16T02:04:43.699Z,1.89
2017-02-16T02:05:44.097Z,1.83
2017-02-16T02:06:44.075Z,1.74
2017-02-16T02:07:44.063Z,1.76
2017-02-16T02:08:44.084Z,1.66
2017-02-16T02:09:44.033Z,1.56
2017-02-16T02:10:44.016Z,1.57
2017-02-16T02:11:43.997Z,1.57
2017-02-16T02:12:43.988Z,1.71
2017-02-16T02:13:43.958Z,1.64
2017-02-16T02:14:43.945Z,1.65
2017-02-16T02:15:43.947Z,1.66
2017-02-16T02:16:43.926Z,1.76
2017-02-16T02:17:43.923Z,1.75
2017-02-16T02:18:43.906Z,1.72
2017-02-16T02:19:43.867Z,1.66
2017-02-16T02:20:43.853Z,1.61
2017-02-16T02:21:43.851Z,1.66
2017-02-16T02:22:43.832Z,1.61
2017-02-16T02:23:43.444Z,1.64
2017-02-16T02:24:43.799Z,1.58
2017-02-16T02:25:43.783Z,1.58
2017-02-16T02:26:43.758Z,1.5
2017-02-16T02:27:43.752Z,1.53
2017-02-16T02:28:43.734Z,1.53
2017-02-16T02:29:43.711Z,1.53
2017-02-16T02:30:43.707Z,1.44
2017-02-16T02:31:43.697Z,1.42
2017-02-16T02:32:43.668Z,1.47
2017-02-16T02:33:43.673Z,1.46
2017-02-16T02:34:43.640Z,1.36
2017-02-16T02:35:43.651Z,1.4
2017-02-16T02:36:43.204Z,1.47
2017-02-16T02:37:43.591Z,1.51
2017-02-16T02:38:43.587Z,1.36
2017-02-16T02:39:43.550Z,1.33
2017-02-16T02:40:43.526Z,1.38
2017-02-16T02:41:43.537Z,1.39
2017-02-16T02:42:43.492Z,1.36
2017-02-16T02:43:43.509Z,1.33
2017-02-16T02:44:43.471Z,1.32
2017-02-16T02:45:43.464Z,1.24
2017-02-16T02:46:43.440Z,1.22
2017-02-16T02:47:43.427Z,1.18
2017-02-16T02:48:43.406Z,1.14
2017-02-16T02:49:43.400Z,1.07
2017-02-16T02:50:43.378Z,1.04
2017-02-16T02:51:52.364Z,1.02
2017-02-16T02:52:43.362Z,0.93
2017-02-16T02:53:43.354Z,0.86
2017-02-16T02:54:43.335Z,0.86
2017-02-16T02:55:43.314Z,0.89
2017-02-16T02:56:43.295Z,0.92
2017-02-16T02:57:43.297Z,1.02
2017-02-16T02:58:43.305Z,0.97
2017-02-16T02:59:43.259Z,1.07
2017-02-16T03:00:43.236Z,0.99
2017-02-16T03:01:43.228Z,1.02
2017-02-16T03:02:43.213Z,0.92
2017-02-16T03:03:43.204Z,0.89
2017-02-16T03:04:43.176Z,0.96
2017-02-16T03:05:43.166Z,0.86
2017-02-16T03:06:43.125Z,0.74
2017-02-16T03:07:43.163Z,0.72
2017-02-16T03:08:43.122Z,0.61
2017-02-16T03:09:43.096Z,0.57
2017-02-16T03:10:43.094Z,0.57
2017-02-16T03:11:43.063Z,0.53
2017-02-16T03:12:43.065Z,0.47
2017-02-16T03:13:43.028Z,0.35
2017-02-16T03:14:43.018Z,0.35
2017-02-16T03:15:42.994Z,0.24
2017-02-16T03:16:42.982Z,0.24
2017-02-16T03:17:42.950Z,0.17
2017-02-16T03:18:42.945Z,0.17
2017-02-16T03:19:42.945Z,0.2
2017-02-16T03:20:42.923Z,0.1
2017-02-16T03:21:42.929Z,0.17
2017-02-16T03:22:42.874Z,0.14
2017-02-16T03:23:42.847Z,0.03
2017-02-16T03:24:42.837Z,0.06
2017-02-16T03:25:42.834Z,0.14
2017-02-16T03:26:42.791Z,0.1
2017-02-16T03:27:42.800Z,0.13
2017-02-16T03:28:42.773Z,0.01
2017-02-16T03:29:42.765Z,0.01
2017-02-16T03:30:42.740Z,-0.01
2017-02-16T03:31:42.731Z,-0.02
2017-02-16T03:32:42.693Z,0.02
2017-02-16T03:33:42.689Z,-0.12
2017-02-16T03:34:42.667Z,-0.1
2017-02-16T03:35:42.670Z,-0.18
2017-02-16T03:36:42.629Z,-0.07
2017-02-16T03:37:42.634Z,-0.1
2017-02-16T03:38:42.605Z,-0.16
2017-02-16T03:39:42.604Z,-0.09
2017-02-16T03:40:42.579Z,-0.1
2017-02-16T03:41:42.561Z,-0.12
2017-02-16T03:42:42.533Z,-0.05
2017-02-16T03:43:42.513Z,-0.04
2017-02-16T03:44:42.510Z,-0.04
2017-02-16T03:45:42.491Z,-0.15
2017-02-16T03:46:42.463Z,-0.04
2017-02-16T03:47:42.446Z,-0.15
2017-02-16T03:48:42.434Z,-0.09
2017-02-16T03:49:42.415Z,-0.09
2017-02-16T03:50:42.403Z,-0.01
2017-02-16T03:51:42.386Z,-0.09
2017-02-16T03:52:42.368Z,-0.02
2017-02-16T03:53:42.379Z,-0.04
2017-02-16T03:54:41.934Z,0.01
2017-02-16T03:55:42.327Z,0.05
2017-02-16T03:56:42.307Z,0.02
2017-02-16T03:57:42.279Z,0.1
2017-02-16T03:58:42.256Z,0.08
2017-02-16T03:59:42.252Z,0.06
2017-02-16T04:00:42.236Z,0.14
2017-02-16T04:01:42.246Z,0.1
2017-02-16T04:02:42.201Z,0.2
2017-02-16T04:03:42.193Z,-0.01
2017-02-16T04:04:42.172Z,0.05
2017-02-16T04:05:42.161Z,0.13
2017-02-16T04:06:42.135Z,0.03
2017-02-16T04:07:42.120Z,0.17
2017-02-16T04:08:42.110Z,0.14
2017-02-16T04:09:41.686Z,0.06
2017-02-16T04:10:42.081Z,0.06
2017-02-16T04:11:42.036Z,0.03
2017-02-16T04:12:42.036Z,0.06
2017-02-16T04:13:42.007Z,0.08
2017-02-16T04:14:42.006Z,0.09
2017-02-16T04:15:41.984Z,0.1
2017-02-16T04:16:41.962Z,0.14
2017-02-16T04:17:41.937Z,0.13
2017-02-16T04:18:41.944Z,0.09
2017-02-16T04:19:41.899Z,0.1
2017-02-16T04:20:41.567Z,0.1
2017-02-16T04:21:41.879Z,0.16
2017-02-16T04:22:41.868Z,0.05
2017-02-16T04:23:41.833Z,0.05
2017-02-16T04:24:41.828Z,0.06
2017-02-16T04:25:41.801Z,0.1
2017-02-16T04:26:41.812Z,0.06
2017-02-16T04:27:41.783Z,0.08
2017-02-16T04:28:41.746Z,0.08
2017-02-16T04:29:41.755Z,0.13
2017-02-16T04:30:41.711Z,0.08
2017-02-16T04:31:41.716Z,0.05
2017-02-16T04:32:41.672Z,0.09
2017-02-16T04:33:41.692Z,0.02
2017-02-16T04:34:41.652Z,0.08
2017-02-16T04:35:41.623Z,0.09
2017-02-16T04:36:41.616Z,0.09
2017-02-16T04:37:41.598Z,0.1
2017-02-16T04:38:41.590Z,0.1
2017-02-16T04:39:41.573Z,0.05
2017-02-16T04:40:41.539Z,-0.04
2017-02-16T04:41:41.529Z,0.02
2017-02-16T04:42:41.523Z,-0.02
2017-02-16T04:43:41.516Z,0.02
2017-02-16T04:44:41.499Z,-0.01
2017-02-16T04:45:41.479Z,-0.04
2017-02-16T04:46:41.455Z,0.01
2017-02-16T04:47:41.429Z,-0.05
2017-02-16T04:48:41.422Z,-0.01
2017-02-16T04:49:41.394Z,-0.02
2017-02-16T04:50:41.381Z,0.02
2017-02-16T04:51:41.353Z,0.05
2017-02-16T04:52:41.344Z,0.06
2017-02-16T04:53:41.350Z,0.03
2017-02-16T04:54:41.308Z,0.09
2017-02-16T04:55:41.302Z,0.06
2017-02-16T04:56:41.276Z,0.01
2017-02-16T04:57:40.870Z,0.05
2017-02-16T04:58:41.240Z,0.02
2017-02-16T04:59:41.239Z,0.03
2017-02-16T05:00:41.221Z,0.08
2017-02-16T05:01:41.191Z,0.05
2017-02-16T05:02:41.171Z,0.08
2017-02-16T05:03:40.739Z,0.13
2017-02-16T05:04:41.139Z,0.05
2017-02-16T05:05:41.138Z,0.03
2017-02-16T05:06:41.119Z,0.01
2017-02-16T05:07:41.099Z,-0.01
2017-02-16T05:08:40.668Z,0.02
2017-02-16T05:09:41.061Z,-0.01
2017-02-16T05:10:41.054Z,0.01
2017-02-16T05:11:41.026Z,-0.01
2017-02-16T05:12:41.004Z,0.05
2017-02-16T05:13:40.999Z,-0.01
2017-02-16T05:14:40.552Z,-0.04
2017-02-16T05:15:40.541Z,0.02
2017-02-16T05:16:40.951Z,0.01
2017-02-16T05:17:40.936Z,-0.05
2017-02-16T05:18:40.915Z,-0.09
2017-02-16T05:19:40.880Z,-0.04
2017-02-16T05:20:40.873Z,-0.02
2017-02-16T05:21:40.843Z,-0.01
2017-02-16T05:22:40.854Z,-0.04
2017-02-16T05:23:40.812Z,0.01
2017-02-16T05:24:40.817Z,-0.04
2017-02-16T05:25:40.373Z,0.01
2017-02-16T05:26:40.752Z,0.03
2017-02-16T05:27:40.756Z,0.1
2017-02-16T05:28:40.313Z,0.03
2017-02-16T05:29:40.712Z,-0.01
2017-02-16T05:30:40.680Z,0.02
2017-02-16T05:31:40.689Z,0.01
2017-02-16T05:32:40.663Z,-0.07
2017-02-16T05:33:40.641Z,-0.1
2017-02-16T05:34:40.214Z,-0.05
2017-02-16T05:35:40.588Z,-0.05
2017-02-16T05:36:40.590Z,-0.02
2017-02-16T05:37:40.558Z,0.01
2017-02-16T05:38:40.560Z,0.02
2017-02-16T05:39:40.537Z,0.03
2017-02-16T05:40:40.530Z,0.01
2017-02-16T05:41:40.510Z,0.01
2017-02-16T05:42:40.477Z,0.03
2017-02-16T05:43:40.071Z,0.09
2017-02-16T05:44:40.467Z,0.13
2017-02-16T05:45:40.438Z,0.14
2017-02-16T05:46:40.028Z,0.13
2017-02-16T05:47:40.401Z,0.09
2017-02-16T05:48:40.377Z,0.08
2017-02-16T05:49:40.367Z,0.09
2017-02-16T05:50:39.951Z,0.1
2017-02-16T05:51:39.950Z,0.1
2017-02-16T05:52:39.903Z,0.09
2017-02-16T05:53:40.287Z,0.16
2017-02-16T05:54:40.284Z,0.13
2017-02-16T05:55:40.277Z,0.16
2017-02-16T05:56:40.239Z,0.19
2017-02-16T05:57:40.216Z,0.16
2017-02-16T05:58:39.804Z,0.13
2017-02-16T05:59:40.200Z,0.17
2017-02-16T06:00:40.201Z,0.14
2017-02-16T06:01:40.143Z,0.21
2017-02-16T06:02:39.744Z,0.2
2017-02-16T06:03:39.350Z,0.21
2017-02-16T06:04:40.126Z,0.19
2017-02-16T06:05:39.704Z,0.19
2017-02-16T06:06:40.084Z,0.26
2017-02-16T06:07:40.052Z,0.26
2017-02-16T06:08:40.048Z,0.31
2017-02-16T06:09:40.010Z,0.21
2017-02-16T06:10:40.012Z,0.28
2017-02-16T06:11:39.988Z,0.26
2017-02-16T06:12:39.944Z,0.27
2017-02-16T06:13:39.964Z,0.2
2017-02-16T06:14:39.947Z,0.24
2017-02-16T06:15:39.901Z,0.26
2017-02-16T06:16:39.508Z,0.28
2017-02-16T06:17:39.901Z,0.2
2017-02-16T06:18:39.874Z,0.27
2017-02-16T06:19:39.854Z,0.28
2017-02-16T06:20:39.860Z,0.24
2017-02-16T06:21:39.407Z,0.28
2017-02-16T06:22:39.789Z,0.27
2017-02-16T06:23:39.784Z,0.31
2017-02-16T06:24:39.762Z,0.26
2017-02-16T06:25:39.356Z,0.27
2017-02-16T06:26:39.726Z,0.27
2017-02-16T06:27:39.318Z,0.38
2017-02-16T06:28:39.705Z,0.35
2017-02-16T06:29:39.675Z,0.35
2017-02-16T06:30:39.259Z,0.38
2017-02-16T06:31:39.653Z,0.44
2017-02-16T06:32:39.644Z,0.52
2017-02-16T06:33:39.615Z,0.48
2017-02-16T06:34:39.205Z,0.57
2017-02-16T06:35:39.577Z,0.52
2017-02-16T06:36:39.548Z,0.61
2017-02-16T06:37:39.141Z,0.64
2017-02-16T06:38:39.135Z,0.74
2017-02-16T06:39:39.509Z,0.74
2017-02-16T06:40:39.494Z,0.72
2017-02-16T06:41:39.486Z,0.85
2017-02-16T06:42:39.459Z,0.85
2017-02-16T06:43:39.443Z,0.84
2017-02-16T06:44:39.444Z,0.85
2017-02-16T06:45:39.410Z,0.92
2017-02-16T06:46:39.404Z,0.93
2017-02-16T06:47:39.379Z,0.92
2017-02-16T06:48:39.355Z,0.99
2017-02-16T06:49:39.319Z,0.96
2017-02-16T06:50:39.324Z,1.07
2017-02-16T06:51:39.334Z,1.12
2017-02-16T06:52:39.281Z,1.04
2017-02-16T06:53:38.885Z,1.08
2017-02-16T06:54:39.273Z,1.12
2017-02-16T06:55:39.231Z,1.11
2017-02-16T06:56:39.248Z,1.11
2017-02-16T06:57:39.201Z,1.14
2017-02-16T06:58:39.183Z,1.14
2017-02-16T06:59:39.156Z,1.1
2017-02-16T07:00:39.148Z,1.12
2017-02-16T07:01:38.735Z,1.17
2017-02-16T07:02:39.116Z,1.2
2017-02-16T07:03:39.115Z,1.15
2017-02-16T07:04:39.100Z,1.17
2017-02-16T07:05:39.082Z,1.2
2017-02-16T07:06:38.257Z,1.17
2017-02-16T07:07:39.029Z,1.21
2017-02-16T07:08:39.034Z,1.21
2017-02-16T07:09:39.011Z,1.18
2017-02-16T07:10:38.573Z,1.24
2017-02-16T07:11:38.979Z,1.26
2017-02-16T07:12:38.587Z,1.21
2017-02-16T07:13:38.933Z,1.18
2017-02-16T07:14:38.549Z,1.22
2017-02-16T07:15:38.907Z,1.22
2017-02-16T07:16:38.488Z,1.21
2017-02-16T07:17:38.873Z,1.26
2017-02-16T07:18:38.859Z,1.18
2017-02-16T07:19:38.862Z,1.3
2017-02-16T07:20:38.850Z,1.32
2017-02-16T07:21:38.823Z,1.21
2017-02-16T07:22:38.802Z,1.17
2017-02-16T07:23:38.785Z,1.32
2017-02-16T07:24:38.748Z,1.33
2017-02-16T07:25:38.738Z,1.38
2017-02-16T07:26:38.324Z,1.33
2017-02-16T07:27:38.697Z,1.47
2017-02-16T07:28:38.676Z,1.54
2017-02-16T07:29:38.683Z,1.53
2017-02-16T07:30:38.652Z,1.42
2017-02-16T07:31:38.643Z,1.5
2017-02-16T07:32:38.223Z,1.44
2017-02-16T07:33:38.598Z,1.46
2017-02-16T07:34:38.614Z,1.53
2017-02-16T07:35:38.568Z,1.57
2017-02-16T07:36:38.153Z,1.58
2017-02-16T07:37:38.559Z,1.57
2017-02-16T07:38:38.518Z,1.61
2017-02-16T07:39:38.505Z,1.68
2017-02-16T07:40:38.502Z,1.71
2017-02-16T07:41:38.491Z,1.76
2017-02-16T07:42:38.457Z,1.74
2017-02-16T07:43:38.449Z,1.89
2017-02-16T07:44:38.455Z,1.84
2017-02-16T07:45:38.413Z,1.93
2017-02-16T07:46:38.422Z,1.94
2017-02-16T07:47:38.389Z,2.01
2017-02-16T07:48:38.360Z,2.01
2017-02-16T07:49:37.965Z,2.04
2017-02-16T07:50:38.344Z,2.02
2017-02-16T07:51:38.337Z,2.06
2017-02-16T07:52:38.299Z,2.15
2017-02-16T07:53:38.269Z,2.12
2017-02-16T07:54:38.260Z,2.13
2017-02-16T07:55:38.262Z,2.27
2017-02-16T07:56:38.233Z,2.24
2017-02-16T07:57:38.251Z,2.33
2017-02-16T07:58:38.215Z,2.3
2017-02-16T07:59:38.203Z,2.44
2017-02-16T08:00:38.199Z,2.47
2017-02-16T08:01:38.176Z,2.45
2017-02-16T08:02:38.149Z,2.54
2017-02-16T08:03:38.128Z,2.54
2017-02-16T08:04:37.733Z,2.59
2017-02-16T08:05:38.091Z,2.54
2017-02-16T08:06:38.087Z,2.66
2017-02-16T08:07:38.095Z,2.54
2017-02-16T08:08:37.637Z,2.63
2017-02-16T08:09:37.658Z,2.65
2017-02-16T08:10:38.039Z,2.58
2017-02-16T08:11:38.001Z,2.77
2017-02-16T08:12:37.600Z,2.81
2017-02-16T08:13:37.991Z,2.73
2017-02-16T08:14:37.976Z,2.83
2017-02-16T08:15:37.958Z,2.87
2017-02-16T08:16:37.924Z,2.96
2017-02-16T08:17:37.916Z,3.01
2017-02-16T08:18:37.895Z,3.11
2017-02-16T08:19:37.896Z,3.16
2017-02-16T08:20:37.875Z,3.26
2017-02-16T08:21:37.867Z,3.32
2017-02-16T08:22:37.847Z,3.39
2017-02-16T08:23:37.820Z,3.34
2017-02-16T08:24:37.795Z,3.4
2017-02-16T08:25:37.412Z,3.37
2017-02-16T08:26:37.796Z,3.34
2017-02-16T08:27:37.767Z,3.42
2017-02-16T08:28:37.760Z,3.37
2017-02-16T08:29:37.745Z,3.34
2017-02-16T08:30:37.317Z,3.35
2017-02-16T08:31:37.700Z,3.43
2017-02-16T08:32:37.688Z,3.4
2017-02-16T08:33:37.673Z,3.54
2017-02-16T08:34:37.671Z,3.46
2017-02-16T08:35:37.657Z,3.57
2017-02-16T08:36:37.256Z,3.72
2017-02-16T08:37:37.630Z,3.69
2017-02-16T08:38:37.605Z,3.76
2017-02-16T08:39:37.599Z,3.79
2017-02-16T08:40:37.561Z,3.81
2017-02-16T08:41:37.558Z,3.85
2017-02-16T08:42:37.549Z,3.99
2017-02-16T08:43:37.519Z,3.96
2017-02-16T08:44:37.517Z,4.11
2017-02-16T08:45:37.503Z,4.22
2017-02-16T08:46:37.490Z,4.29
2017-02-16T08:47:37.496Z,4.28
2017-02-16T08:48:37.470Z,4.39
2017-02-16T08:49:37.447Z,4.51
2017-02-16T08:50:37.454Z,4.57
2017-02-16T08:51:37.425Z,4.64
2017-02-16T08:52:37.402Z,4.71
2017-02-16T08:53:37.391Z,4.83
2017-02-16T08:54:36.973Z,4.91
2017-02-16T08:55:37.352Z,4.98
2017-02-16T08:56:36.954Z,5.05
2017-02-16T08:57:37.318Z,5.15
2017-02-16T08:58:37.325Z,5.23
2017-02-16T08:59:36.902Z,5.2
2017-02-16T09:00:37.288Z,5.39
2017-02-16T09:01:36.863Z,5.44
2017-02-16T09:02:37.269Z,5.44
2017-02-16T09:03:37.264Z,5.63
2017-02-16T09:04:37.262Z,5.73
2017-02-16T09:05:37.225Z,5.7
2017-02-16T09:06:37.223Z,5.88
2017-02-16T09:07:37.210Z,5.96
2017-02-16T09:08:37.180Z,6
2017-02-16T09:09:37.168Z,6.02
2017-02-16T09:10:37.148Z,6.06
2017-02-16T09:11:37.162Z,6.25
2017-02-16T09:12:37.147Z,6.34
2017-02-16T09:13:37.138Z,6.43
2017-02-16T09:14:37.131Z,6.57
2017-02-16T09:15:37.101Z,6.65
2017-02-16T09:16:37.079Z,6.75
2017-02-16T09:17:37.066Z,6.78
2017-02-16T09:18:37.070Z,6.83
2017-02-16T09:19:37.049Z,6.93
2017-02-16T09:20:37.034Z,7
2017-02-16T09:21:37.022Z,7.01
2017-02-16T09:22:37.028Z,7.12
2017-02-16T09:23:36.989Z,7.13
2017-02-16T09:24:36.968Z,7.27
2017-02-16T09:25:36.987Z,7.27
2017-02-16T09:26:36.942Z,7.29
2017-02-16T09:27:36.975Z,7.36
2017-02-16T09:28:36.951Z,7.44
2017-02-16T09:29:36.943Z,7.36
2017-02-16T09:30:36.919Z,7.4
2017-02-16T09:31:36.898Z,7.47
2017-02-16T09:32:36.499Z,7.54
2017-02-16T09:33:36.469Z,7.49
2017-02-16T09:34:36.870Z,7.68
2017-02-16T09:35:36.867Z,7.67
2017-02-16T09:36:36.444Z,7.64
2017-02-16T09:37:36.829Z,7.64
2017-02-16T09:38:36.023Z,7.64
2017-02-16T09:39:36.819Z,7.71
2017-02-16T09:40:36.772Z,7.85
2017-02-16T09:41:36.786Z,7.82
2017-02-16T09:42:36.784Z,7.82
2017-02-16T09:43:36.762Z,7.86
2017-02-16T09:44:36.758Z,7.85
2017-02-16T09:45:36.746Z,7.82
2017-02-16T09:46:36.735Z,7.92
2017-02-16T09:47:36.744Z,7.96
2017-02-16T09:48:36.691Z,7.98
2017-02-16T09:49:36.710Z,7.98
2017-02-16T09:50:36.705Z,7.98
2017-02-16T09:51:36.668Z,8.01
2017-02-16T09:52:36.669Z,8.09
2017-02-16T09:53:36.641Z,8.11
2017-02-16T09:54:36.652Z,8.19
2017-02-16T09:55:36.629Z,8.21
2017-02-16T09:56:36.648Z,8.19
2017-02-16T09:57:36.609Z,8.16
2017-02-16T09:58:36.611Z,8.19
2017-02-16T09:59:36.556Z,8.26
2017-02-16T10:00:36.580Z,8.16
2017-02-16T10:01:36.560Z,8.24
2017-02-16T10:02:36.152Z,8.16
2017-02-16T10:03:36.132Z,8.22
2017-02-16T10:04:36.554Z,8.24
2017-02-16T10:05:36.523Z,8.04
2017-02-16T10:06:36.505Z,8.19
2017-02-16T10:07:36.106Z,8.1
2017-02-16T10:08:36.507Z,8.19
2017-02-16T10:09:36.061Z,8.14
2017-02-16T10:10:36.476Z,8.17
2017-02-16T10:11:36.455Z,8.24
2017-02-16T10:12:36.047Z,8.22
2017-02-16T10:13:35.644Z,8.25
2017-02-16T10:14:36.012Z,8.26
2017-02-16T10:15:36.028Z,8.32
2017-02-16T10:16:35.997Z,8.21
2017-02-16T10:17:35.989Z,8.22
2017-02-16T10:18:36.386Z,8.24
2017-02-16T10:19:35.972Z,8.25
2017-02-16T10:20:35.960Z,8.25
2017-02-16T10:21:35.947Z,8.22
2017-02-16T10:23:14.491Z,8.34
2017-02-16T10:23:35.921Z,8.39
2017-02-16T10:24:36.317Z,8.4
2017-02-16T10:25:36.323Z,8.47
2017-02-16T10:26:36.296Z,8.58
2017-02-16T10:27:35.888Z,8.61
2017-02-16T10:28:36.298Z,8.71
2017-02-16T10:29:36.268Z,8.86
2017-02-16T10:30:36.245Z,8.98
2017-02-16T10:31:36.244Z,8.92
2017-02-16T10:32:36.213Z,9.04
2017-02-16T10:33:36.221Z,8.95
2017-02-16T10:34:36.236Z,9.01
2017-02-16T10:35:36.212Z,9.17
2017-02-16T10:36:36.200Z,9.27
2017-02-16T10:37:36.164Z,9.41
2017-02-16T10:38:36.180Z,9.34
2017-02-16T10:39:36.148Z,9.42
2017-02-16T10:40:36.170Z,9.42
2017-02-16T10:41:36.155Z,9.45
2017-02-16T10:42:36.128Z,9.47
2017-02-16T10:43:36.107Z,9.52
2017-02-16T10:44:36.128Z,9.57
2017-02-16T10:45:36.101Z,9.6
2017-02-16T10:46:36.119Z,9.6
2017-02-16T10:47:36.095Z,9.6
2017-02-16T10:48:36.069Z,9.71
2017-02-16T10:49:36.058Z,9.74
2017-02-16T10:50:35.645Z,9.64
2017-02-16T10:51:35.636Z,9.75
2017-02-16T10:52:35.638Z,9.77
2017-02-16T10:53:36.030Z,9.78
2017-02-16T10:54:36.006Z,9.81
2017-02-16T10:55:36.034Z,9.75
2017-02-16T10:56:36.012Z,9.81
2017-02-16T10:57:35.987Z,9.82
2017-02-16T10:58:35.979Z,9.81
2017-02-16T10:59:35.993Z,9.78
2017-02-16T11:00:35.563Z,9.84
2017-02-16T11:01:35.564Z,9.82
2017-02-16T11:02:35.954Z,9.98
2017-02-16T11:03:35.536Z,9.92
2017-02-16T11:04:35.902Z,10.05
2017-02-16T11:05:35.915Z,10.03
2017-02-16T11:06:35.899Z,9.99
2017-02-16T11:07:35.495Z,10.11
2017-02-16T11:08:35.879Z,10.08
2017-02-16T11:09:35.878Z,10.17
2017-02-16T11:10:35.873Z,10.17
2017-02-16T11:11:35.840Z,10.2
2017-02-16T11:12:35.845Z,10.25
2017-02-16T11:13:35.431Z,10.25
2017-02-16T11:14:35.843Z,10.32
2017-02-16T11:15:35.814Z,10.36
2017-02-16T11:16:35.785Z,10.18
2017-02-16T11:17:35.417Z,10.17
2017-02-16T11:18:35.789Z,10.18
2017-02-16T11:19:35.787Z,10.15
2017-02-16T11:20:35.376Z,10.05
2017-02-16T11:21:35.365Z,10.15
2017-02-16T11:22:35.758Z,10.21
2017-02-16T11:23:35.739Z,10.26
2017-02-16T11:24:35.739Z,10.33
2017-02-16T11:25:35.741Z,10.28
2017-02-16T11:26:35.718Z,10.28
2017-02-16T11:27:35.703Z,10.38
2017-02-16T11:28:35.698Z,10.38
2017-02-16T11:29:36.638Z,10.44
2017-02-16T11:30:35.677Z,10.55
2017-02-16T11:31:35.682Z,10.49
2017-02-16T11:32:35.670Z,10.33
2017-02-16T11:33:35.672Z,10.25
2017-02-16T11:34:35.655Z,10.15
2017-02-16T11:35:35.631Z,10.11
2017-02-16T11:36:35.661Z,10
2017-02-16T11:37:35.633Z,9.99
2017-02-16T11:38:35.622Z,10.08
2017-02-16T11:39:35.596Z,9.99
2017-02-16T11:40:35.612Z,10.07
2017-02-16T11:41:35.586Z,9.95
2017-02-16T11:42:35.586Z,9.95
2017-02-16T11:43:35.562Z,9.8
2017-02-16T11:44:35.594Z,9.7
2017-02-16T11:45:35.547Z,9.57
2017-02-16T11:46:35.531Z,9.52
2017-02-16T11:47:35.539Z,9.48
2017-02-16T11:48:35.540Z,9.52
2017-02-16T11:49:35.508Z,9.53
2017-02-16T11:50:35.488Z,9.71
2017-02-16T11:51:35.497Z,9.78
2017-02-16T11:52:35.486Z,9.92
2017-02-16T11:53:35.066Z,9.93
2017-02-16T11:54:35.464Z,10
2017-02-16T11:55:35.430Z,9.98
2017-02-16T11:56:35.471Z,10.13
2017-02-16T11:57:35.434Z,10.14
2017-02-16T11:58:35.423Z,10.28
2017-02-16T11:59:35.427Z,10.29
2017-02-16T12:00:35.404Z,10.21
2017-02-16T12:01:35.402Z,10.21
2017-02-16T12:02:35.418Z,10.28
2017-02-16T12:03:35.398Z,10.28
2017-02-16T12:04:35.352Z,10.38
2017-02-16T12:05:35.383Z,10.44
2017-02-16T12:06:35.362Z,10.51
2017-02-16T12:07:34.963Z,10.59
2017-02-16T12:08:35.358Z,10.52
2017-02-16T12:09:35.347Z,10.55
2017-02-16T12:10:34.932Z,10.57
2017-02-16T12:11:35.319Z,10.54
2017-02-16T12:12:35.288Z,10.58
2017-02-16T12:13:35.303Z,10.57
2017-02-16T12:14:35.289Z,10.61
2017-02-16T12:15:35.303Z,10.59
2017-02-16T12:16:35.275Z,10.63
2017-02-16T12:17:35.279Z,10.72
2017-02-16T12:18:35.275Z,10.63
2017-02-16T12:19:35.232Z,10.55
2017-02-16T12:20:35.235Z,10.52
2017-02-16T12:21:34.816Z,10.49
2017-02-16T12:22:35.218Z,10.51
2017-02-16T12:23:35.216Z,10.42
2017-02-16T12:24:35.194Z,10.47
2017-02-16T12:25:35.193Z,10.39
2017-02-16T12:26:35.185Z,10.41
2017-02-16T12:27:35.197Z,10.38
2017-02-16T12:28:35.168Z,10.42
2017-02-16T12:29:35.213Z,10.32
2017-02-16T12:30:35.163Z,10.23
2017-02-16T12:31:35.160Z,10.15
2017-02-16T12:32:35.126Z,10.2
2017-02-16T12:33:35.137Z,10.18
2017-02-16T12:34:35.105Z,10.2
2017-02-16T12:35:35.105Z,10.13
2017-02-16T12:36:35.093Z,10.13
2017-02-16T12:37:35.080Z,10.1
2017-02-16T12:38:35.098Z,10.13
2017-02-16T12:39:35.078Z,10.14
2017-02-16T12:40:35.072Z,10.08
2017-02-16T12:41:35.071Z,10.13
2017-02-16T12:42:35.058Z,10.03
2017-02-16T12:43:35.030Z,10.03
2017-02-16T12:44:35.025Z,10.14
2017-02-16T12:45:35.022Z,10.18
2017-02-16T12:46:35.021Z,10.18
2017-02-16T12:47:34.991Z,10.21
2017-02-16T12:48:34.591Z,10.25
2017-02-16T12:49:34.993Z,10.2
2017-02-16T12:50:34.995Z,10.28
2017-02-16T12:51:34.972Z,10.14
2017-02-16T12:52:34.949Z,10.11
2017-02-16T12:53:34.958Z,10.11
2017-02-16T12:54:34.939Z,10.13
2017-02-16T12:55:34.938Z,10.1
2017-02-16T12:56:34.927Z,10.07
2017-02-16T12:57:34.933Z,9.96
2017-02-16T12:58:34.493Z,9.9
2017-02-16T12:59:34.899Z,9.88
2017-02-16T13:00:34.886Z,9.84
2017-02-16T13:01:34.871Z,9.74
2017-02-16T13:02:34.846Z,9.72
2017-02-16T13:03:34.074Z,9.67
2017-02-16T13:04:34.846Z,9.7
2017-02-16T13:05:34.840Z,9.6
2017-02-16T13:06:34.843Z,9.48
2017-02-16T13:07:34.820Z,9.45
2017-02-16T13:08:34.799Z,9.5
2017-02-16T13:09:34.810Z,9.55
2017-02-16T13:10:34.789Z,9.48
2017-02-16T13:11:34.817Z,9.5
2017-02-16T13:12:34.775Z,9.47
2017-02-16T13:13:34.793Z,9.53
2017-02-16T13:14:34.353Z,9.48
2017-02-16T13:15:34.760Z,9.39
2017-02-16T13:16:34.355Z,9.42